sensor_id;sensor_type;location;lat;lon;timestamp;P1;durP1;ratioP1;P2;durP2;ratioP2
49728;SDS011;66333;49.798;10.968;2023-07-29T00:01:16;4.05;;;2.40;;
49728;SDS011;66333;49.798;10.968;2023-07-29T00:03:46;4.47;;;2.22;;
49728;SDS011;66333;49.798;10.968;2023-07-29T00:06:16;4.20;;;2.35;;
49728;SDS011;66333;49.798;10.968;2023-07-29T00:08:46;4.28;;;2.55;;
49728;SDS011;66333;49.798;10.968;2023-07-29T00:11:19;4.20;;;2.45;;
49728;SDS011;66333;49.798;10.968;2023-07-29T00:13:46;4.00;;;2.40;;
49728;SDS011;66333;49.798;10.968;2023-07-29T00:16:17;4.10;;;2.40;;
49728;SDS011;66333;49.798;10.968;2023-07-29T00:18:48;3.90;;;2.40;;
49728;SDS011;66333;49.798;10.968;2023-07-29T00:21:18;4.10;;;2.42;;
49728;SDS011;66333;49.798;10.968;2023-07-29T00:23:55;4.25;;;2.47;;
49728;SDS011;66333;49.798;10.968;2023-07-29T00:26:24;4.20;;;2.50;;
49728;SDS011;66333;49.798;10.968;2023-07-29T00:28:55;4.05;;;2.33;;
49728;SDS011;66333;49.798;10.968;2023-07-29T00:31:25;4.10;;;2.30;;
49728;SDS011;66333;49.798;10.968;2023-07-29T00:33:55;4.25;;;2.55;;
49728;SDS011;66333;49.798;10.968;2023-07-29T00:36:25;3.72;;;2.33;;
49728;SDS011;66333;49.798;10.968;2023-07-29T00:38:53;3.92;;;2.40;;
49728;SDS011;66333;49.798;10.968;2023-07-29T00:41:23;3.90;;;2.13;;
49728;SDS011;66333;49.798;10.968;2023-07-29T00:43:59;4.10;;;2.50;;
49728;SDS011;66333;49.798;10.968;2023-07-29T00:46:29;3.78;;;2.40;;
49728;SDS011;66333;49.798;10.968;2023-07-29T00:48:59;4.30;;;2.50;;
49728;SDS011;66333;49.798;10.968;2023-07-29T00:51:30;3.70;;;2.28;;
49728;SDS011;66333;49.798;10.968;2023-07-29T00:54:00;3.85;;;2.30;;
49728;SDS011;66333;49.798;10.968;2023-07-29T00:56:32;3.70;;;2.28;;
49728;SDS011;66333;49.798;10.968;2023-07-29T00:59:00;4.25;;;2.30;;
49728;SDS011;66333;49.798;10.968;2023-07-29T01:01:29;4.07;;;2.33;;
49728;SDS011;66333;49.798;10.968;2023-07-29T01:03:59;3.88;;;2.25;;
49728;SDS011;66333;49.798;10.968;2023-07-29T01:06:29;4.00;;;2.50;;
49728;SDS011;66333;49.798;10.968;2023-07-29T01:09:12;3.95;;;2.30;;
49728;SDS011;66333;49.798;10.968;2023-07-29T01:11:48;3.90;;;2.20;;
49728;SDS011;66333;49.798;10.968;2023-07-29T01:14:27;4.18;;;2.50;;
49728;SDS011;66333;49.798;10.968;2023-07-29T01:17:09;4.25;;;2.65;;
49728;SDS011;66333;49.798;10.968;2023-07-29T01:19:46;4.05;;;2.40;;
49728;SDS011;66333;49.798;10.968;2023-07-29T01:22:21;4.13;;;2.33;;
49728;SDS011;66333;49.798;10.968;2023-07-29T01:25:09;4.82;;;2.35;;
49728;SDS011;66333;49.798;10.968;2023-07-29T01:27:39;4.05;;;2.40;;
49728;SDS011;66333;49.798;10.968;2023-07-29T01:30:10;3.95;;;2.30;;
49728;SDS011;66333;49.798;10.968;2023-07-29T01:32:41;3.90;;;2.00;;
49728;SDS011;66333;49.798;10.968;2023-07-29T01:35:27;4.15;;;2.40;;
49728;SDS011;66333;49.798;10.968;2023-07-29T01:38:07;4.07;;;2.50;;
49728;SDS011;66333;49.798;10.968;2023-07-29T01:40:49;4.00;;;2.33;;
49728;SDS011;66333;49.798;10.968;2023-07-29T01:43:21;4.10;;;2.30;;
49728;SDS011;66333;49.798;10.968;2023-07-29T01:45:52;4.07;;;2.15;;
49728;SDS011;66333;49.798;10.968;2023-07-29T01:48:29;4.30;;;2.58;;
49728;SDS011;66333;49.798;10.968;2023-07-29T01:50:59;4.00;;;2.47;;
49728;SDS011;66333;49.798;10.968;2023-07-29T01:53:29;3.90;;;2.30;;
49728;SDS011;66333;49.798;10.968;2023-07-29T01:56:05;4.03;;;2.38;;
49728;SDS011;66333;49.798;10.968;2023-07-29T01:58:33;4.35;;;2.47;;
49728;SDS011;66333;49.798;10.968;2023-07-29T02:01:03;4.80;;;2.45;;
49728;SDS011;66333;49.798;10.968;2023-07-29T02:03:32;3.95;;;2.33;;
49728;SDS011;66333;49.798;10.968;2023-07-29T02:06:00;4.10;;;2.40;;
49728;SDS011;66333;49.798;10.968;2023-07-29T02:08:36;4.05;;;2.33;;
49728;SDS011;66333;49.798;10.968;2023-07-29T02:11:11;4.15;;;2.42;;
49728;SDS011;66333;49.798;10.968;2023-07-29T02:16:10;4.03;;;2.25;;
49728;SDS011;66333;49.798;10.968;2023-07-29T02:18:40;4.20;;;2.45;;
49728;SDS011;66333;49.798;10.968;2023-07-29T02:21:10;5.82;;;2.83;;
49728;SDS011;66333;49.798;10.968;2023-07-29T02:23:40;3.90;;;2.40;;
49728;SDS011;66333;49.798;10.968;2023-07-29T02:26:22;4.15;;;2.38;;
49728;SDS011;66333;49.798;10.968;2023-07-29T02:28:51;4.07;;;2.13;;
49728;SDS011;66333;49.798;10.968;2023-07-29T02:31:28;3.85;;;2.25;;
49728;SDS011;66333;49.798;10.968;2023-07-29T02:33:59;4.22;;;2.58;;
49728;SDS011;66333;49.798;10.968;2023-07-29T02:36:28;3.67;;;2.10;;
49728;SDS011;66333;49.798;10.968;2023-07-29T02:38:59;3.80;;;2.30;;
49728;SDS011;66333;49.798;10.968;2023-07-29T02:41:43;4.05;;;2.45;;
49728;SDS011;66333;49.798;10.968;2023-07-29T02:44:12;4.13;;;2.67;;
49728;SDS011;66333;49.798;10.968;2023-07-29T02:46:41;4.00;;;2.30;;
49728;SDS011;66333;49.798;10.968;2023-07-29T02:49:11;3.70;;;2.20;;
49728;SDS011;66333;49.798;10.968;2023-07-29T02:51:41;4.38;;;2.40;;
49728;SDS011;66333;49.798;10.968;2023-07-29T02:54:12;3.70;;;2.40;;
49728;SDS011;66333;49.798;10.968;2023-07-29T02:56:44;4.20;;;2.53;;
49728;SDS011;66333;49.798;10.968;2023-07-29T02:59:19;4.20;;;2.33;;
49728;SDS011;66333;49.798;10.968;2023-07-29T03:01:55;4.00;;;2.33;;
49728;SDS011;66333;49.798;10.968;2023-07-29T03:04:24;3.67;;;2.17;;
49728;SDS011;66333;49.798;10.968;2023-07-29T03:06:53;4.10;;;2.50;;
49728;SDS011;66333;49.798;10.968;2023-07-29T03:09:23;3.95;;;2.22;;
49728;SDS011;66333;49.798;10.968;2023-07-29T03:11:54;3.80;;;2.33;;
49728;SDS011;66333;49.798;10.968;2023-07-29T03:14:25;3.88;;;2.25;;
49728;SDS011;66333;49.798;10.968;2023-07-29T03:16:58;3.90;;;2.22;;
49728;SDS011;66333;49.798;10.968;2023-07-29T03:19:29;3.88;;;2.30;;
49728;SDS011;66333;49.798;10.968;2023-07-29T03:22:00;4.22;;;2.50;;
49728;SDS011;66333;49.798;10.968;2023-07-29T03:24:30;4.00;;;2.30;;
49728;SDS011;66333;49.798;10.968;2023-07-29T03:27:12;4.55;;;2.50;;
49728;SDS011;66333;49.798;10.968;2023-07-29T03:29:43;4.38;;;2.45;;
49728;SDS011;66333;49.798;10.968;2023-07-29T03:32:11;4.57;;;2.45;;
49728;SDS011;66333;49.798;10.968;2023-07-29T03:34:41;4.35;;;2.63;;
49728;SDS011;66333;49.798;10.968;2023-07-29T03:37:10;4.47;;;2.40;;
49728;SDS011;66333;49.798;10.968;2023-07-29T03:39:41;4.15;;;2.30;;
49728;SDS011;66333;49.798;10.968;2023-07-29T03:42:15;3.97;;;2.42;;
49728;SDS011;66333;49.798;10.968;2023-07-29T03:44:46;4.00;;;2.50;;
49728;SDS011;66333;49.798;10.968;2023-07-29T03:47:16;3.90;;;2.33;;
49728;SDS011;66333;49.798;10.968;2023-07-29T03:49:46;4.60;;;2.72;;
49728;SDS011;66333;49.798;10.968;2023-07-29T03:52:16;4.10;;;2.50;;
49728;SDS011;66333;49.798;10.968;2023-07-29T03:54:46;4.00;;;2.40;;
49728;SDS011;66333;49.798;10.968;2023-07-29T03:57:21;4.28;;;2.40;;
49728;SDS011;66333;49.798;10.968;2023-07-29T03:59:51;4.15;;;2.47;;
49728;SDS011;66333;49.798;10.968;2023-07-29T04:02:19;4.53;;;2.35;;
49728;SDS011;66333;49.798;10.968;2023-07-29T04:04:48;3.75;;;2.25;;
49728;SDS011;66333;49.798;10.968;2023-07-29T04:07:18;4.20;;;2.60;;
49728;SDS011;66333;49.798;10.968;2023-07-29T04:09:49;4.60;;;2.78;;
49728;SDS011;66333;49.798;10.968;2023-07-29T04:12:27;4.63;;;2.22;;
49728;SDS011;66333;49.798;10.968;2023-07-29T04:14:56;4.28;;;2.60;;
49728;SDS011;66333;49.798;10.968;2023-07-29T04:17:26;4.07;;;2.33;;
49728;SDS011;66333;49.798;10.968;2023-07-29T04:19:56;4.15;;;2.45;;
49728;SDS011;66333;49.798;10.968;2023-07-29T04:22:27;4.55;;;2.45;;
49728;SDS011;66333;49.798;10.968;2023-07-29T04:24:56;3.70;;;2.40;;
49728;SDS011;66333;49.798;10.968;2023-07-29T04:27:41;3.70;;;2.20;;
49728;SDS011;66333;49.798;10.968;2023-07-29T04:30:11;4.18;;;2.47;;
49728;SDS011;66333;49.798;10.968;2023-07-29T04:32:41;3.85;;;2.22;;
49728;SDS011;66333;49.798;10.968;2023-07-29T04:35:13;4.43;;;2.72;;
49728;SDS011;66333;49.798;10.968;2023-07-29T04:37:42;4.00;;;2.25;;
49728;SDS011;66333;49.798;10.968;2023-07-29T04:40:14;4.13;;;2.53;;
49728;SDS011;66333;49.798;10.968;2023-07-29T04:42:50;4.03;;;2.30;;
49728;SDS011;66333;49.798;10.968;2023-07-29T04:45:21;3.90;;;2.15;;
49728;SDS011;66333;49.798;10.968;2023-07-29T04:47:52;4.32;;;2.53;;
49728;SDS011;66333;49.798;10.968;2023-07-29T04:50:23;4.10;;;2.35;;
49728;SDS011;66333;49.798;10.968;2023-07-29T04:52:51;3.90;;;2.20;;
49728;SDS011;66333;49.798;10.968;2023-07-29T04:55:22;4.05;;;2.47;;
49728;SDS011;66333;49.798;10.968;2023-07-29T04:57:49;3.25;;;1.50;;
49728;SDS011;66333;49.798;10.968;2023-07-29T05:00:16;4.35;;;2.40;;
49728;SDS011;66333;49.798;10.968;2023-07-29T05:02:43;4.07;;;2.40;;
49728;SDS011;66333;49.798;10.968;2023-07-29T05:05:09;3.65;;;2.15;;
49728;SDS011;66333;49.798;10.968;2023-07-29T05:07:36;4.13;;;2.30;;
49728;SDS011;66333;49.798;10.968;2023-07-29T05:10:02;4.00;;;2.55;;
49728;SDS011;66333;49.798;10.968;2023-07-29T05:12:29;4.10;;;2.50;;
49728;SDS011;66333;49.798;10.968;2023-07-29T05:14:59;4.10;;;2.50;;
49728;SDS011;66333;49.798;10.968;2023-07-29T05:17:25;4.20;;;2.65;;
49728;SDS011;66333;49.798;10.968;2023-07-29T05:19:53;4.45;;;2.50;;
49728;SDS011;66333;49.798;10.968;2023-07-29T05:22:23;4.32;;;2.70;;
49728;SDS011;66333;49.798;10.968;2023-07-29T05:24:59;3.95;;;2.22;;
49728;SDS011;66333;49.798;10.968;2023-07-29T05:27:35;3.90;;;2.40;;
49728;SDS011;66333;49.798;10.968;2023-07-29T05:30:18;4.20;;;2.50;;
49728;SDS011;66333;49.798;10.968;2023-07-29T05:32:47;3.83;;;2.22;;
49728;SDS011;66333;49.798;10.968;2023-07-29T05:35:16;4.35;;;2.72;;
49728;SDS011;66333;49.798;10.968;2023-07-29T05:37:47;4.00;;;2.35;;
49728;SDS011;66333;49.798;10.968;2023-07-29T05:40:17;6.82;;;2.42;;
49728;SDS011;66333;49.798;10.968;2023-07-29T05:42:47;3.50;;;1.65;;
49728;SDS011;66333;49.798;10.968;2023-07-29T05:45:20;3.53;;;1.60;;
49728;SDS011;66333;49.798;10.968;2023-07-29T05:47:47;3.50;;;1.63;;
49728;SDS011;66333;49.798;10.968;2023-07-29T05:50:16;4.05;;;2.03;;
49728;SDS011;66333;49.798;10.968;2023-07-29T05:52:58;3.58;;;1.42;;
49728;SDS011;66333;49.798;10.968;2023-07-29T05:55:28;3.42;;;1.65;;
49728;SDS011;66333;49.798;10.968;2023-07-29T05:57:57;4.20;;;2.30;;
49728;SDS011;66333;49.798;10.968;2023-07-29T06:00:38;4.50;;;2.60;;
49728;SDS011;66333;49.798;10.968;2023-07-29T06:03:08;4.28;;;2.50;;
49728;SDS011;66333;49.798;10.968;2023-07-29T06:05:38;3.60;;;2.13;;
49728;SDS011;66333;49.798;10.968;2023-07-29T06:08:14;3.95;;;2.15;;
49728;SDS011;66333;49.798;10.968;2023-07-29T06:10:55;4.40;;;2.40;;
49728;SDS011;66333;49.798;10.968;2023-07-29T06:13:25;4.32;;;2.20;;
49728;SDS011;66333;49.798;10.968;2023-07-29T06:16:07;5.20;;;2.35;;
49728;SDS011;66333;49.798;10.968;2023-07-29T06:18:37;4.57;;;2.50;;
49728;SDS011;66333;49.798;10.968;2023-07-29T06:21:05;4.18;;;2.65;;
49728;SDS011;66333;49.798;10.968;2023-07-29T06:23:38;4.25;;;2.60;;
49728;SDS011;66333;49.798;10.968;2023-07-29T06:26:06;6.05;;;2.50;;
49728;SDS011;66333;49.798;10.968;2023-07-29T06:28:37;5.63;;;2.60;;
49728;SDS011;66333;49.798;10.968;2023-07-29T06:31:19;5.32;;;3.00;;
49728;SDS011;66333;49.798;10.968;2023-07-29T06:33:46;7.45;;;2.28;;
49728;SDS011;66333;49.798;10.968;2023-07-29T06:36:16;4.95;;;2.47;;
49728;SDS011;66333;49.798;10.968;2023-07-29T06:38:58;4.50;;;2.58;;
49728;SDS011;66333;49.798;10.968;2023-07-29T06:41:30;4.50;;;2.80;;
49728;SDS011;66333;49.798;10.968;2023-07-29T06:44:04;6.10;;;2.92;;
49728;SDS011;66333;49.798;10.968;2023-07-29T06:46:38;8.07;;;2.85;;
49728;SDS011;66333;49.798;10.968;2023-07-29T06:49:07;6.00;;;2.60;;
49728;SDS011;66333;49.798;10.968;2023-07-29T06:51:34;11.68;;;2.78;;
49728;SDS011;66333;49.798;10.968;2023-07-29T06:54:04;9.70;;;3.00;;
49728;SDS011;66333;49.798;10.968;2023-07-29T06:56:33;9.45;;;2.90;;
49728;SDS011;66333;49.798;10.968;2023-07-29T06:59:03;7.32;;;3.03;;
49728;SDS011;66333;49.798;10.968;2023-07-29T07:01:45;11.73;;;3.05;;
49728;SDS011;66333;49.798;10.968;2023-07-29T07:04:15;13.82;;;3.33;;
49728;SDS011;66333;49.798;10.968;2023-07-29T07:06:43;18.77;;;4.05;;
49728;SDS011;66333;49.798;10.968;2023-07-29T07:09:13;15.73;;;3.40;;
49728;SDS011;66333;49.798;10.968;2023-07-29T07:11:43;10.52;;;3.15;;
49728;SDS011;66333;49.798;10.968;2023-07-29T07:14:13;9.02;;;2.00;;
49728;SDS011;66333;49.798;10.968;2023-07-29T07:16:55;3.40;;;1.30;;
49728;SDS011;66333;49.798;10.968;2023-07-29T07:19:25;10.52;;;2.90;;
49728;SDS011;66333;49.798;10.968;2023-07-29T07:21:55;6.93;;;1.85;;
49728;SDS011;66333;49.798;10.968;2023-07-29T07:24:25;24.45;;;3.80;;
49728;SDS011;66333;49.798;10.968;2023-07-29T07:26:53;15.80;;;3.63;;
49728;SDS011;66333;49.798;10.968;2023-07-29T07:29:24;22.88;;;3.42;;
49728;SDS011;66333;49.798;10.968;2023-07-29T07:32:06;16.15;;;3.30;;
49728;SDS011;66333;49.798;10.968;2023-07-29T07:34:38;11.95;;;3.17;;
49728;SDS011;66333;49.798;10.968;2023-07-29T07:37:14;11.70;;;2.95;;
49728;SDS011;66333;49.798;10.968;2023-07-29T07:39:41;7.18;;;2.60;;
49728;SDS011;66333;49.798;10.968;2023-07-29T07:42:09;4.85;;;2.08;;
49728;SDS011;66333;49.798;10.968;2023-07-29T07:44:39;5.25;;;2.40;;
49728;SDS011;66333;49.798;10.968;2023-07-29T07:47:13;5.00;;;2.03;;
49728;SDS011;66333;49.798;10.968;2023-07-29T07:49:43;8.07;;;2.95;;
49728;SDS011;66333;49.798;10.968;2023-07-29T07:52:16;6.15;;;2.20;;
49728;SDS011;66333;49.798;10.968;2023-07-29T07:54:44;5.28;;;2.10;;
49728;SDS011;66333;49.798;10.968;2023-07-29T07:57:14;6.72;;;1.73;;
49728;SDS011;66333;49.798;10.968;2023-07-29T07:59:45;8.07;;;2.50;;
49728;SDS011;66333;49.798;10.968;2023-07-29T08:02:19;6.97;;;3.03;;
49728;SDS011;66333;49.798;10.968;2023-07-29T08:04:54;11.45;;;3.10;;
49728;SDS011;66333;49.798;10.968;2023-07-29T08:07:24;7.82;;;2.53;;
49728;SDS011;66333;49.798;10.968;2023-07-29T08:09:54;6.03;;;2.42;;
49728;SDS011;66333;49.798;10.968;2023-07-29T08:12:22;9.30;;;2.70;;
49728;SDS011;66333;49.798;10.968;2023-07-29T08:14:49;9.02;;;2.92;;
49728;SDS011;66333;49.798;10.968;2023-07-29T08:17:17;7.90;;;2.72;;
49728;SDS011;66333;49.798;10.968;2023-07-29T08:19:43;8.95;;;2.70;;
49728;SDS011;66333;49.798;10.968;2023-07-29T08:22:10;11.73;;;2.50;;
49728;SDS011;66333;49.798;10.968;2023-07-29T08:24:37;6.68;;;2.60;;
49728;SDS011;66333;49.798;10.968;2023-07-29T08:27:06;6.15;;;2.38;;
49728;SDS011;66333;49.798;10.968;2023-07-29T08:29:48;7.18;;;2.35;;
49728;SDS011;66333;49.798;10.968;2023-07-29T08:32:20;5.65;;;2.25;;
49728;SDS011;66333;49.798;10.968;2023-07-29T08:34:48;4.82;;;1.70;;
49728;SDS011;66333;49.798;10.968;2023-07-29T08:37:18;5.45;;;2.50;;
49728;SDS011;66333;49.798;10.968;2023-07-29T08:39:48;6.53;;;2.28;;
49728;SDS011;66333;49.798;10.968;2023-07-29T08:42:19;7.57;;;2.55;;
49728;SDS011;66333;49.798;10.968;2023-07-29T08:44:47;7.45;;;2.30;;
49728;SDS011;66333;49.798;10.968;2023-07-29T08:47:24;4.47;;;2.03;;
49728;SDS011;66333;49.798;10.968;2023-07-29T08:49:55;4.78;;;1.40;;
49728;SDS011;66333;49.798;10.968;2023-07-29T08:52:26;6.65;;;2.08;;
49728;SDS011;66333;49.798;10.968;2023-07-29T08:54:58;5.45;;;2.38;;
49728;SDS011;66333;49.798;10.968;2023-07-29T08:57:29;8.60;;;2.33;;
49728;SDS011;66333;49.798;10.968;2023-07-29T08:59:57;4.63;;;2.20;;
49728;SDS011;66333;49.798;10.968;2023-07-29T09:02:42;5.00;;;2.20;;
49728;SDS011;66333;49.798;10.968;2023-07-29T09:05:13;6.65;;;2.28;;
49728;SDS011;66333;49.798;10.968;2023-07-29T09:07:41;6.45;;;2.97;;
49728;SDS011;66333;49.798;10.968;2023-07-29T09:10:10;10.10;;;2.83;;
49728;SDS011;66333;49.798;10.968;2023-07-29T09:12:49;9.23;;;2.72;;
49728;SDS011;66333;49.798;10.968;2023-07-29T09:15:28;7.97;;;2.67;;
49728;SDS011;66333;49.798;10.968;2023-07-29T09:18:16;13.82;;;3.03;;
49728;SDS011;66333;49.798;10.968;2023-07-29T09:20:49;5.82;;;2.10;;
49728;SDS011;66333;49.798;10.968;2023-07-29T09:23:17;7.45;;;2.75;;
49728;SDS011;66333;49.798;10.968;2023-07-29T09:25:53;7.40;;;2.40;;
49728;SDS011;66333;49.798;10.968;2023-07-29T09:28:32;10.20;;;2.20;;
49728;SDS011;66333;49.798;10.968;2023-07-29T09:31:03;7.10;;;2.05;;
49728;SDS011;66333;49.798;10.968;2023-07-29T09:33:39;6.35;;;2.10;;
49728;SDS011;66333;49.798;10.968;2023-07-29T09:36:15;11.82;;;2.25;;
49728;SDS011;66333;49.798;10.968;2023-07-29T09:38:52;12.00;;;2.53;;
49728;SDS011;66333;49.798;10.968;2023-07-29T09:41:30;9.95;;;2.80;;
49728;SDS011;66333;49.798;10.968;2023-07-29T09:43:59;12.88;;;2.95;;
49728;SDS011;66333;49.798;10.968;2023-07-29T09:46:31;11.10;;;2.47;;
49728;SDS011;66333;49.798;10.968;2023-07-29T09:49:15;11.88;;;3.13;;
49728;SDS011;66333;49.798;10.968;2023-07-29T09:51:45;10.00;;;2.42;;
49728;SDS011;66333;49.798;10.968;2023-07-29T09:54:15;15.40;;;2.65;;
49728;SDS011;66333;49.798;10.968;2023-07-29T09:56:44;7.88;;;2.20;;
49728;SDS011;66333;49.798;10.968;2023-07-29T09:59:13;7.05;;;2.05;;
49728;SDS011;66333;49.798;10.968;2023-07-29T10:01:48;6.95;;;2.22;;
49728;SDS011;66333;49.798;10.968;2023-07-29T10:07:04;8.02;;;2.25;;
49728;SDS011;66333;49.798;10.968;2023-07-29T10:09:33;7.53;;;1.80;;
49728;SDS011;66333;49.798;10.968;2023-07-29T10:12:05;5.75;;;1.80;;
49728;SDS011;66333;49.798;10.968;2023-07-29T10:14:35;7.85;;;2.05;;
49728;SDS011;66333;49.798;10.968;2023-07-29T10:17:14;5.97;;;1.80;;
49728;SDS011;66333;49.798;10.968;2023-07-29T10:19:55;6.43;;;1.60;;
49728;SDS011;66333;49.798;10.968;2023-07-29T10:22:25;3.92;;;1.13;;
49728;SDS011;66333;49.798;10.968;2023-07-29T10:24:59;6.13;;;1.70;;
49728;SDS011;66333;49.798;10.968;2023-07-29T10:27:38;3.85;;;1.20;;
49728;SDS011;66333;49.798;10.968;2023-07-29T10:30:30;4.00;;;1.20;;
49728;SDS011;66333;49.798;10.968;2023-07-29T10:33:02;4.10;;;1.38;;
49728;SDS011;66333;49.798;10.968;2023-07-29T10:35:45;4.78;;;1.77;;
49728;SDS011;66333;49.798;10.968;2023-07-29T10:38:17;5.40;;;1.45;;
49728;SDS011;66333;49.798;10.968;2023-07-29T10:40:54;5.65;;;1.90;;
49728;SDS011;66333;49.798;10.968;2023-07-29T10:43:27;5.30;;;1.48;;
49728;SDS011;66333;49.798;10.968;2023-07-29T10:46:17;5.00;;;1.90;;
49728;SDS011;66333;49.798;10.968;2023-07-29T10:48:53;4.30;;;1.50;;
49728;SDS011;66333;49.798;10.968;2023-07-29T10:51:24;4.70;;;1.85;;
49728;SDS011;66333;49.798;10.968;2023-07-29T10:53:54;5.20;;;1.63;;
49728;SDS011;66333;49.798;10.968;2023-07-29T10:56:28;6.15;;;1.65;;
49728;SDS011;66333;49.798;10.968;2023-07-29T10:58:59;5.03;;;1.80;;
49728;SDS011;66333;49.798;10.968;2023-07-29T11:01:53;5.40;;;1.95;;
49728;SDS011;66333;49.798;10.968;2023-07-29T11:04:24;6.25;;;1.90;;
49728;SDS011;66333;49.798;10.968;2023-07-29T11:10:00;4.93;;;1.88;;
49728;SDS011;66333;49.798;10.968;2023-07-29T11:13:02;4.35;;;1.73;;
49728;SDS011;66333;49.798;10.968;2023-07-29T11:15:33;5.32;;;2.05;;
49728;SDS011;66333;49.798;10.968;2023-07-29T11:18:03;4.63;;;1.80;;
49728;SDS011;66333;49.798;10.968;2023-07-29T11:20:36;4.88;;;1.83;;
49728;SDS011;66333;49.798;10.968;2023-07-29T11:23:18;4.45;;;1.85;;
49728;SDS011;66333;49.798;10.968;2023-07-29T11:25:48;5.65;;;2.10;;
49728;SDS011;66333;49.798;10.968;2023-07-29T11:28:20;4.68;;;1.77;;
49728;SDS011;66333;49.798;10.968;2023-07-29T11:30:50;4.82;;;1.98;;
49728;SDS011;66333;49.798;10.968;2023-07-29T11:33:20;4.93;;;1.60;;
49728;SDS011;66333;49.798;10.968;2023-07-29T11:35:55;4.30;;;1.67;;
49728;SDS011;66333;49.798;10.968;2023-07-29T11:38:30;3.60;;;1.50;;
49728;SDS011;66333;49.798;10.968;2023-07-29T11:41:03;4.18;;;1.50;;
49728;SDS011;66333;49.798;10.968;2023-07-29T11:43:34;4.72;;;1.63;;
49728;SDS011;66333;49.798;10.968;2023-07-29T11:46:05;4.55;;;1.77;;
49728;SDS011;66333;49.798;10.968;2023-07-29T11:48:36;4.60;;;1.52;;
49728;SDS011;66333;49.798;10.968;2023-07-29T11:51:11;3.83;;;1.58;;
49728;SDS011;66333;49.798;10.968;2023-07-29T11:53:54;4.15;;;1.52;;
49728;SDS011;66333;49.798;10.968;2023-07-29T11:56:29;4.50;;;1.50;;
49728;SDS011;66333;49.798;10.968;2023-07-29T11:59:02;4.70;;;1.70;;
49728;SDS011;66333;49.798;10.968;2023-07-29T12:01:39;3.92;;;1.65;;
49728;SDS011;66333;49.798;10.968;2023-07-29T12:04:10;3.50;;;1.55;;
49728;SDS011;66333;49.798;10.968;2023-07-29T12:06:41;7.43;;;1.67;;
49728;SDS011;66333;49.798;10.968;2023-07-29T12:09:21;3.70;;;1.40;;
49728;SDS011;66333;49.798;10.968;2023-07-29T12:11:54;4.00;;;1.73;;
49728;SDS011;66333;49.798;10.968;2023-07-29T12:14:25;4.50;;;2.20;;
49728;SDS011;66333;49.798;10.968;2023-07-29T12:16:53;5.38;;;2.20;;
49728;SDS011;66333;49.798;10.968;2023-07-29T12:19:23;5.22;;;2.42;;
49728;SDS011;66333;49.798;10.968;2023-07-29T12:21:51;4.70;;;2.30;;
49728;SDS011;66333;49.798;10.968;2023-07-29T12:27:16;7.25;;;2.13;;
49728;SDS011;66333;49.798;10.968;2023-07-29T12:29:43;6.35;;;1.90;;
49728;SDS011;66333;49.798;10.968;2023-07-29T12:32:15;4.78;;;1.77;;
49728;SDS011;66333;49.798;10.968;2023-07-29T12:34:45;5.53;;;2.38;;
49728;SDS011;66333;49.798;10.968;2023-07-29T12:37:12;3.92;;;2.08;;
49728;SDS011;66333;49.798;10.968;2023-07-29T12:39:49;7.57;;;1.85;;
49728;SDS011;66333;49.798;10.968;2023-07-29T12:42:17;29.65;;;3.42;;
49728;SDS011;66333;49.798;10.968;2023-07-29T12:44:47;12.43;;;2.65;;
49728;SDS011;66333;49.798;10.968;2023-07-29T12:47:17;6.80;;;2.30;;
49728;SDS011;66333;49.798;10.968;2023-07-29T12:49:45;6.65;;;2.13;;
49728;SDS011;66333;49.798;10.968;2023-07-29T12:52:15;5.80;;;2.10;;
49728;SDS011;66333;49.798;10.968;2023-07-29T12:54:57;7.53;;;2.10;;
49728;SDS011;66333;49.798;10.968;2023-07-29T12:57:27;6.60;;;2.28;;
49728;SDS011;66333;49.798;10.968;2023-07-29T12:59:56;7.28;;;2.15;;
49728;SDS011;66333;49.798;10.968;2023-07-29T13:02:27;6.72;;;2.60;;
49728;SDS011;66333;49.798;10.968;2023-07-29T13:04:57;6.40;;;2.40;;
49728;SDS011;66333;49.798;10.968;2023-07-29T13:07:27;6.07;;;2.00;;
49728;SDS011;66333;49.798;10.968;2023-07-29T13:10:06;7.28;;;2.42;;
49728;SDS011;66333;49.798;10.968;2023-07-29T13:12:38;7.78;;;2.30;;
49728;SDS011;66333;49.798;10.968;2023-07-29T13:15:13;5.63;;;2.05;;
49728;SDS011;66333;49.798;10.968;2023-07-29T13:17:41;4.93;;;2.20;;
49728;SDS011;66333;49.798;10.968;2023-07-29T13:20:11;6.57;;;2.08;;
49728;SDS011;66333;49.798;10.968;2023-07-29T13:22:38;6.95;;;2.25;;
49728;SDS011;66333;49.798;10.968;2023-07-29T13:25:16;6.10;;;2.38;;
49728;SDS011;66333;49.798;10.968;2023-07-29T13:27:44;5.15;;;2.28;;
49728;SDS011;66333;49.798;10.968;2023-07-29T13:30:14;5.63;;;2.00;;
49728;SDS011;66333;49.798;10.968;2023-07-29T13:32:44;5.50;;;1.95;;
49728;SDS011;66333;49.798;10.968;2023-07-29T13:35:14;4.72;;;2.08;;
49728;SDS011;66333;49.798;10.968;2023-07-29T13:37:44;4.35;;;1.80;;
49728;SDS011;66333;49.798;10.968;2023-07-29T13:40:19;6.35;;;1.88;;
49728;SDS011;66333;49.798;10.968;2023-07-29T13:42:46;4.38;;;1.83;;
49728;SDS011;66333;49.798;10.968;2023-07-29T13:45:17;9.18;;;2.35;;
49728;SDS011;66333;49.798;10.968;2023-07-29T13:47:48;5.93;;;1.90;;
49728;SDS011;66333;49.798;10.968;2023-07-29T13:50:25;5.32;;;2.28;;
49728;SDS011;66333;49.798;10.968;2023-07-29T13:52:55;7.85;;;1.90;;
49728;SDS011;66333;49.798;10.968;2023-07-29T13:55:27;6.40;;;2.17;;
49728;SDS011;66333;49.798;10.968;2023-07-29T13:58:02;7.18;;;1.85;;
49728;SDS011;66333;49.798;10.968;2023-07-29T14:00:30;4.90;;;1.98;;
49728;SDS011;66333;49.798;10.968;2023-07-29T14:03:00;4.32;;;2.03;;
49728;SDS011;66333;49.798;10.968;2023-07-29T14:05:30;5.43;;;2.10;;
49728;SDS011;66333;49.798;10.968;2023-07-29T14:08:00;4.45;;;1.80;;
49728;SDS011;66333;49.798;10.968;2023-07-29T14:10:50;6.97;;;2.25;;
49728;SDS011;66333;49.798;10.968;2023-07-29T14:13:21;5.05;;;2.28;;
49728;SDS011;66333;49.798;10.968;2023-07-29T14:15:53;5.85;;;2.10;;
49728;SDS011;66333;49.798;10.968;2023-07-29T14:18:22;5.85;;;2.00;;
49728;SDS011;66333;49.798;10.968;2023-07-29T14:20:53;4.43;;;2.08;;
49728;SDS011;66333;49.798;10.968;2023-07-29T14:23:25;5.28;;;2.05;;
49728;SDS011;66333;49.798;10.968;2023-07-29T14:26:02;6.95;;;2.92;;
49728;SDS011;66333;49.798;10.968;2023-07-29T14:28:28;5.18;;;2.00;;
49728;SDS011;66333;49.798;10.968;2023-07-29T14:30:59;5.25;;;2.08;;
49728;SDS011;66333;49.798;10.968;2023-07-29T14:33:28;5.80;;;2.03;;
49728;SDS011;66333;49.798;10.968;2023-07-29T14:35:59;5.38;;;2.35;;
49728;SDS011;66333;49.798;10.968;2023-07-29T14:38:31;5.78;;;2.13;;
49728;SDS011;66333;49.798;10.968;2023-07-29T14:41:12;6.05;;;2.28;;
49728;SDS011;66333;49.798;10.968;2023-07-29T14:43:40;6.75;;;2.25;;
49728;SDS011;66333;49.798;10.968;2023-07-29T14:46:10;5.80;;;2.10;;
49728;SDS011;66333;49.798;10.968;2023-07-29T14:48:41;6.65;;;2.30;;
49728;SDS011;66333;49.798;10.968;2023-07-29T14:51:10;5.60;;;1.90;;
49728;SDS011;66333;49.798;10.968;2023-07-29T14:53:41;4.20;;;1.90;;
49728;SDS011;66333;49.798;10.968;2023-07-29T14:56:12;4.88;;;1.65;;
49728;SDS011;66333;49.798;10.968;2023-07-29T14:58:43;3.92;;;1.55;;
49728;SDS011;66333;49.798;10.968;2023-07-29T15:01:13;6.22;;;1.80;;
49728;SDS011;66333;49.798;10.968;2023-07-29T15:03:43;4.32;;;1.73;;
49728;SDS011;66333;49.798;10.968;2023-07-29T15:06:13;3.72;;;1.50;;
49728;SDS011;66333;49.798;10.968;2023-07-29T15:08:43;5.38;;;2.00;;
49728;SDS011;66333;49.798;10.968;2023-07-29T15:11:16;4.03;;;1.80;;
49728;SDS011;66333;49.798;10.968;2023-07-29T15:13:45;5.77;;;2.30;;